Extreme weather reports worldwide

Thunderstorm

Station
 
Location
 
Name
 
Wind
Knots
Gust
Knots
Vis
SM
Temp/Dew
C
Baro
inHg
METAR
 
YQF CYQF Red Deer, CA Red Deer Regional Airport 25 32 9 19/2 29.54 CYQF 272211Z AUTO 18025G32KT 9SM -RA VCTS BKN071 OVC099 19/02 A2954 RMK LTNG DIST S SLP001 DENSITY ALT 4600FT
YET CYET Edson, CA Edson Airport 20 31 9 15/3 29.57 CYET 272223Z AUTO 25020G31KT 140V270 9SM -RA VCTS FEW040 BKN066 OVC081 15/03 A2957 RMK LTNG DIST N W NW PRESRR SLP016 DENSITY ALT 4200FT
MMY ROMY Miyako City, JP Miyako Airport 18 30 0.93 26/25 29.65 ROMY 272206Z 20018G30KT 170V230 1500 R22/1500VP2000N +TSRA BR SCT005 BKN007 BKN010 SCT020CB 26/25 Q1004 RMK 3ST005 5ST007 6CU010 3CB020 A2967 MOD TS OHD MOV NE RI++
SPF KSPF Spearfish, US Black Hills Airport-Clyde Ice Field 19 26 10 25/9 29.70 KSPF 272215Z AUTO 34019G26KT 10SM VCTS BKN100 25/09 A2970 RMK AO2
RKS KRKS Rock Springs, US Southwest Wyoming Regional Airport 13 26 10 23/-1 30.01 KRKS 272227Z AUTO 23013G26KT 10SM TS SCT090 SCT110 23/M01 A3001 RMK AO2 PK WND 25027/2215 LTG DSNT SW TSB21 T02331011

Station
 
Location
 
Name
 
Wind
Knots
Gust
Knots
Vis
SM
Temp/Dew
C
Baro
inHg
METAR
 
DXR KDXR Danbury, US Danbury Municipal Airport 13 25 2 23/20 29.84 KDXR 272214Z 18013G25KT 140V220 2SM VCTS RA BKN019 BKN024 OVC036 23/20 A2984 RMK AO2 LTG DSNT W RAB00 P0006 T02330200
K2IS 12 25 10 26/21 29.96 K2IS 272215Z AUTO 18012G25KT 10SM TS BKN046 OVC055 27/22 A2996 RMK AO2 LTG DSNT NE THRU SW T02680219
FBR KFBR Fort Bridger, US Fort Bridger Airport 19 23 10 25/0 30.08 KFBR 272215Z AUTO 27019G23KT 10SM VCTS SCT085 BKN110 25/00 A3008 RMK AO2 T02531002
CYGE Golden, CA Golden Airport 10 21 15 12/7 29.73 CYGE 272200Z 31010G21KT 15SM -TSRA BKN027CB OVC060 12/07 A2973 RMK CB6SC2 OCNL LTGIC E CB ALQDS SLP077 DENSITY ALT 3100FT
CYS KCYS Cheyenne, US Cheyenne Regional Jerry Olson Field 9 19 10 23/0 29.97 KCYS 272225Z 28009G19KT 10SM VCTS CLR 24/00 A2997 RMK AO2 PK WND 23031/2157 WSHFT 2155 LTG DSNT NE RAE2159 P0000 T02390000
YIP KYIP Detroit, US Willow Run Airport 13 10 20/12 29.71 KYIP 272207Z 36013KT 10SM VCTS BKN060 OVC095 20/13 A2971 RMK AO2 LTG DSNT W TSE01 T02000128 $
MGZA Zacapa, GT Zacapa Airport 12 6.21 33/21 MGZA 272200Z 09012KT 9999 TS FEW028 SCT035CB SCT200 33/21 QFE983.5 CB/TS ESE/SE/SSE CB S
ISB OPIS Islamabad, PK Islamabad International Airport 12 1.86 22/17 29.59 OPIS 272200Z 31012KT 3000 TSRA FEW030CB SCT040 OVC100 22/17 Q1002 TEMPO 27020G40KT 2000 TSRA FEW030CB
BRX MDBH Barahona, DO Maria Montez International Airport 10 4.35 29/25 30.00 MDBH 272200Z 18010KT 7000 TS/VCSH FEW016CB BKN018 BKN070 29/25 Q1016 CB/N/SE/S/W TEMPO 6000 -TSRA
DET KDET Detroit, US Coleman A. Young Municipal Airport 9 1.5 18/16 29.72 KDET 272220Z 02009KT 1 1/2SM VCTS RA BR FEW028 BKN040 OVC048 19/17 A2972 RMK AO2 LTG DSNT W RAB01 TSTM WEST MOV EAST P0015 T01890167
DTW KDTW Detroit, US Detroit Metropolitan Wayne County Airport 9 10 22/15 29.70 KDTW 272153Z 22009KT 10SM TS SCT050CB BKN100 BKN200 22/15 A2970 RMK AO2 LTG DSNT N AND NW TSB48 SLP055 OCNL LTGIC NW-NE TS NW-NE MOV SE T02220150 $
GGE KGGE Georgetown, US Georgetown County Airport 8 10 24/21 29.88 KGGE 272215Z AUTO 20008KT 10SM TS CLR 24/21 A2988 RMK AO2 LTG DSNT E SE AND NW
CAA MHCA Catacamas, HN Catacamas Airport 8 6.21 27/22 MHCA 272200Z 06008KT 9999 TS SCT030TCU SCT032CB 27/22 RMK CB TS NE CB E NW
BJL GBYD Banjul, GM Banjul International Airport 8 5.59 23/23 30.03 GBYD 272200Z 09008KT 9000 -TSRA SCT010 FEW018CB BKN100 23/23 Q1017 CB NE-SW
IGU SBFI Foz Do Iguaçu, BR Cataratas International Airport 7 1.24 18/18 30.00 SBFI 272200Z 15007KT 2000 -RA BR VCTS SCT003 BKN020 FEW035CB OVC060 18/18 Q1016
YQG CYQG Windsor, CA Windsor Airport 7 9 20/15 29.72 CYQG 272223Z AUTO 23007KT 9SM VCTS BKN045 BKN120 20/15 A2972 RMK LTNG DIST ALQDS SLP062 DENSITY ALT 1700FT
TFF SBTF Tefé, BR Tefé Airport 6 6.21 26/25 29.82 SBTF 272200Z 22006KT 9999 TS FEW012 FEW025CB BKN070 26/25 Q1010
YKF CYKF Kitchener, CA Waterloo Airport 6 9 20/16 29.69 CYKF 272207Z AUTO 23006KT 9SM -TSRA BKN044 BKN060 BKN130 20/16 A2969 RMK LTNG DIST ALQDS SLP051 DENSITY ALT 2200FT
ORO MHYR Yoro, HN Yoro Airport 6 4.97 25/21 MHYR 272200Z 25006KT 8000 -TSRA SCT025CB BKN080 25/21
TEA MHTE Tela, HN Tela Airport 6 5.59 30/24 29.79 MHTE 272200Z 05006KT 9000 TS BKN022TCU FEW028CB BKN080 30/24 Q1009 A2980
GUA MGGT Guatemala City, GT La Aurora Airport 6 2.49 18/18 30.09 MGGT 272200Z 20006KT 4000 -TSRA BR SCT004 BKN016 FEW024CB OVC090 18/18 Q1019 A3009 CB S/SW/W
SHI RORS Shimojishima, JP Shimojishima Airport 6 4.35 26/25 29.68 RORS 272200Z 25006KT 190V300 7000 TSRA FEW003 BKN008 BKN010 FEW020CB 26/25 Q1005
KLC GOOK Kaolack, SN Kaolack Airport 6 1.86 25/24 30.06 GOOK 272200Z 08006KT 3000 TSRA SCT008 FEW030CB 25/24 Q1018
ZIG GOGG Ziguinchor, SN Ziguinchor Airport 6 4.35 23/23 30.00 GOGG 272200Z 18006KT 7000 TSRA FEW030CB 23/23 Q1016
BTH WIDD Batam Island, ID Hang Nadim International Airport 6 6.21 26/24 29.79 WIDD 272200Z 21006KT 9999 TS FEW013CB SCT014 26/24 Q1009 NOSIG RMK CB T S AND SW
CMW MUCM Camaguey, CU Ignacio Agramonte International Airport 6 3.73 23/21 29.94 MUCM 272151Z 28006KT 210V360 6000 -TSRA FEW021 SCT030CB OVC075 23/21 Q1014
PVL KPBX Pikeville, US Pike County-Hatcher Field 6 10 17/14 29.82 KPBX 272215Z AUTO 23006KT 10SM TSRA SCT028 SCT055 OVC080 18/15 A2982 RMK AO2 LTG DSNT NE AND E T01790149
JXN KJXN Jackson, US Jackson County Reynolds Field 6 10 20/15 29.72 KJXN 272159Z 33006KT 10SM TS FEW020 SCT029 BKN036 21/15 A2972 RMK AO2 LTG DSNT ALQDS TSB59 TS E MOV E OCNL LTGCCICCG LTG DSNT S-E T02060150
SNU MUSC Santa Clara, CU Abel Santamaria Airport 5 3.73 26/23 29.97 MUSC 272150Z 18005KT 140V220 6000 -RA VCTS BKN018CB 26/23 Q1015
KMKS Moncks Corner, US Berkeley County Airport 5 10 23/21 29.87 KMKS 272215Z AUTO 20005KT 10SM VCTS SCT049 SCT055 23/21 A2987 RMK AO2 LTG DSNT SE
KMAO Marion, US Marion County Airport 5 10 22/20 29.87 KMAO 272215Z AUTO 17005KT 10SM -VCTSRA BKN026 BKN036 OVC100 22/20 A2987 RMK AO2 LTG DSNT SW
SUA KSUA Stuart, US Witham Field 5 5 27/23 29.97 KSUA 272147Z 15005KT 5SM -TSRA SCT020 BKN028 27/23 A2997 RMK TSB2045
KJNX Smithfield, US Johnston County Airport 5 10 25/20 29.85 KJNX 272215Z AUTO 20005KT 10SM TS SCT026 SCT038 BKN050 25/20 A2985 RMK AO2 LTG DSNT NW
CYCP Blue River, CA Blue River Airport 5 15 12/10 29.70 CYCP 272200Z 11005KT 060V190 15SM TSRA FEW005 BKN060CB BKN120 12/10 A2970 RMK SF1CB5AC1 SLP071 DENSITY ALT 2700FT
BQK KBQK Brunswick, US Brunswick Golden Isles Airport 5 10 23/22 29.90 KBQK 272215Z AUTO 13005KT 10SM VCTS SCT012 SCT028 OVC095 23/23 A2990 RMK AO2 LTG DSNT ALQDS T02340226
MEJ KGKJ Meadville, US Port Meadville Airport 4 10 20/14 29.73 KGKJ 272215Z AUTO 17004KT 10SM VCTS FEW049 SCT070 OVC110 21/14 A2973 RMK AO2 T02060144
HOG MUHG Holguin, CU Frank Pais International Airport 4 1.24 23/22 29.97 MUHG 272208Z VRB04KT 2000 R05/P2000D +TSRA FEW030CB SCT045 BKN070 23/22 Q1015 RMK CB AT IV QUAD
LYH KLYH Lynchburg, US Lynchburg Regional Preston Glenn Field 4 4 20/17 29.79 KLYH 272225Z VRB04KT 4SM -TSRA BR SCT025 BKN040 OVC047 20/18 A2979 RMK AO2 LTG DSNT N-E TS E MOV E P0070 T02000178
GOOD 4 4.97 25/25 30.00 GOOD 272200Z 22004KT 8000 -TSRA FEW010 FEW030CB BKN120 25/25 Q1016
KDED Deland, US Deland Municipal Sidney H Taylor Field 4 10 26/21 29.95 KDED 272215Z AUTO 30004KT 10SM TS SCT065 BKN070 OVC095 26/21 A2995 RMK AO2 LTG DSNT ALQDS T02630212
MTC KMTC Mount Clemens, US Selfridge Air National Guard Base Airport 4 3 18/18 29.71 KMTC 272217Z 36004KT 3SM VCTS -RA SCT030 BKN045CB OVC250 18/18 A2971 RMK AO2A OCNL LTGICCG SW TSE17 TS 9SW MOV SE SLP064
YQZ CYQZ Quesnel, CA Quesnel Airport 4 6 11/8 29.65 CYQZ 272215Z AUTO 02004KT 290V060 6SM RA VCTS BR BKN044 BKN050 OVC071 11/08 A2965 RMK LTNG DIST NE SLP055 DENSITY ALT 2000FT
UST KSGJ St Augustine, US Northeast Florida Regional Airport 4 10 26/23 29.94 KSGJ 272213Z 19004KT 10SM VCTS FEW065 BKN090 OVC100 26/23 A2994 RMK AO2 LTG DSNT S TSB07RAE2158 P0000
KMNI Manning, US Santee Cooper Regional Airport 3 10 25/20 29.86 KMNI 272215Z AUTO 25003KT 10SM TS BKN090 25/20 A2986 RMK AO2 LTG DSNT E AND SE
KCKI Kingstree, US Williamsburg Regional Airport 3 10 22/21 29.86 KCKI 272215Z AUTO 15003KT 10SM VCTS SCT035 BKN047 OVC070 22/21 A2986 RMK AO2 LTG DSNT NE THRU SE P0004